Detmold, Missouri
Current Conditions -  °F | °C
As of 2:15 PM on Monday 24 Nov 2014 (Local Time) from KFYG Reporting Station
Overcast Overcast  
Wind Chill: 31°   Ceiling: 4100
Heat Index: 39°   Visibility: 10mi
Dew Point: 27°   Wind: 14mph
Humidity: 61%   Direction: 270°W
Pressure: 29.79"   Gusts: 31mph
Location:  38.5502°N, 91.2585°W
Report Text: KFYG 242015Z AUTO 27012G27KT 10SM OVC041 04/M03 A2979 RMK AO2
Loading
Personal Weather Stations






























Interactive Weather Map New forecast layout! Learn more

10-Day Weather Forecast

Advertisements
Track Severe Weather on mobile